sensor_id;sensor_type;location;lat;lon;timestamp;pressure;altitude;pressure_sealevel;temperature;humidity
6528;BME280;3297;42.664;23.256;2022-07-05T00:01:05;50414.75;;;-139.84;63.83
6528;BME280;3297;42.664;23.256;2022-07-05T00:03:31;50420.56;;;-139.84;63.70
6528;BME280;3297;42.664;23.256;2022-07-05T00:05:57;50383.63;;;-139.84;64.79
6528;BME280;3297;42.664;23.256;2022-07-05T00:08:24;50412.78;;;-139.84;65.23
6528;BME280;3297;42.664;23.256;2022-07-05T00:10:49;50397.25;;;-139.84;65.26
6528;BME280;3297;42.664;23.256;2022-07-05T00:13:15;50405.03;;;-139.84;65.26
6528;BME280;3297;42.664;23.256;2022-07-05T00:15:41;50440.00;;;-139.84;64.87
6528;BME280;3297;42.664;23.256;2022-07-05T00:18:07;50424.47;;;-139.84;64.19
6528;BME280;3297;42.664;23.256;2022-07-05T00:20:33;50377.81;;;-139.84;63.21
6528;BME280;3297;42.664;23.256;2022-07-05T00:22:59;50441.94;;;-139.84;62.78
6528;BME280;3297;42.664;23.256;2022-07-05T00:25:24;50408.91;;;-139.84;62.98
6528;BME280;3297;42.664;23.256;2022-07-05T00:27:50;50420.56;;;-139.84;62.56
6528;BME280;3297;42.664;23.256;2022-07-05T00:30:15;50443.91;;;-139.84;62.37
6528;BME280;3297;42.664;23.256;2022-07-05T00:32:41;50393.34;;;-139.84;61.99
6528;BME280;3297;42.664;23.256;2022-07-05T00:35:07;50416.69;;;-139.84;62.08
6528;BME280;3297;42.664;23.256;2022-07-05T00:37:33;50436.13;;;-139.84;62.08
6528;BME280;3297;42.664;23.256;2022-07-05T00:39:59;50424.47;;;-139.84;62.51
6528;BME280;3297;42.664;23.256;2022-07-05T00:42:25;50385.59;;;-139.84;62.47
6528;BME280;3297;42.664;23.256;2022-07-05T00:44:50;50432.22;;;-139.84;63.28
6528;BME280;3297;42.664;23.256;2022-07-05T00:47:16;50416.69;;;-139.84;63.44
6528;BME280;3297;42.664;23.256;2022-07-05T00:49:43;50405.03;;;-139.84;63.34
6528;BME280;3297;42.664;23.256;2022-07-05T00:52:10;50424.47;;;-139.84;63.18
6528;BME280;3297;42.664;23.256;2022-07-05T00:54:37;50408.91;;;-139.84;62.77
6528;BME280;3297;42.664;23.256;2022-07-05T00:57:03;50424.47;;;-139.84;62.75
6528;BME280;3297;42.664;23.256;2022-07-05T00:59:30;50426.41;;;-139.84;62.57
6528;BME280;3297;42.664;23.256;2022-07-05T01:01:56;50406.97;;;-139.84;62.37
6528;BME280;3297;42.664;23.256;2022-07-05T01:04:22;50399.19;;;-139.84;62.11
6528;BME280;3297;42.664;23.256;2022-07-05T01:06:49;50381.69;;;-139.84;62.19
6528;BME280;3297;42.664;23.256;2022-07-05T01:09:16;50408.91;;;-139.84;62.38
6528;BME280;3297;42.664;23.256;2022-07-05T01:11:46;50401.13;;;-139.84;62.45
6528;BME280;3297;42.664;23.256;2022-07-05T01:14:20;50426.41;;;-139.84;62.55
6528;BME280;3297;42.664;23.256;2022-07-05T01:16:51;50420.56;;;-139.84;62.83
6528;BME280;3297;42.664;23.256;2022-07-05T01:19:18;50399.19;;;-139.84;62.71
6528;BME280;3297;42.664;23.256;2022-07-05T01:21:47;50405.03;;;-139.84;62.46
6528;BME280;3297;42.664;23.256;2022-07-05T01:24:14;50387.53;;;-139.84;62.98
6528;BME280;3297;42.664;23.256;2022-07-05T01:26:42;50418.63;;;-139.84;62.87
6528;BME280;3297;42.664;23.256;2022-07-05T01:29:08;50420.56;;;-139.84;62.55
6528;BME280;3297;42.664;23.256;2022-07-05T01:31:38;50389.47;;;-139.84;62.55
6528;BME280;3297;42.664;23.256;2022-07-05T01:34:04;50393.34;;;-139.84;62.83
6528;BME280;3297;42.664;23.256;2022-07-05T01:36:31;50414.75;;;-139.84;62.96
6528;BME280;3297;42.664;23.256;2022-07-05T01:38:57;50440.00;;;-139.84;62.23
6528;BME280;3297;42.664;23.256;2022-07-05T01:41:23;50385.59;;;-139.84;62.10
6528;BME280;3297;42.664;23.256;2022-07-05T01:43:48;50424.47;;;-139.84;62.40
6528;BME280;3297;42.664;23.256;2022-07-05T01:46:15;50397.25;;;-139.84;62.44
6528;BME280;3297;42.664;23.256;2022-07-05T01:48:42;50445.84;;;-139.84;62.50
6528;BME280;3297;42.664;23.256;2022-07-05T01:51:25;50410.84;;;-139.84;62.30
6528;BME280;3297;42.664;23.256;2022-07-05T01:53:52;50424.47;;;-139.84;62.46
6528;BME280;3297;42.664;23.256;2022-07-05T01:56:18;50426.41;;;-139.84;62.14
6528;BME280;3297;42.664;23.256;2022-07-05T01:58:44;50416.69;;;-139.84;62.60
6528;BME280;3297;42.664;23.256;2022-07-05T02:01:09;50389.47;;;-139.84;62.86
6528;BME280;3297;42.664;23.256;2022-07-05T02:03:36;50373.91;;;-139.84;63.27
6528;BME280;3297;42.664;23.256;2022-07-05T02:06:01;50428.34;;;-139.84;63.46
6528;BME280;3297;42.664;23.256;2022-07-05T02:08:30;50440.00;;;-139.84;63.27
6528;BME280;3297;42.664;23.256;2022-07-05T02:10:56;50403.06;;;-139.84;63.12
6528;BME280;3297;42.664;23.256;2022-07-05T02:13:22;50397.25;;;-139.84;63.40
6528;BME280;3297;42.664;23.256;2022-07-05T02:15:47;50405.03;;;-139.84;63.55
6528;BME280;3297;42.664;23.256;2022-07-05T02:18:13;50422.50;;;-139.84;64.36
6528;BME280;3297;42.664;23.256;2022-07-05T02:20:40;50420.56;;;-139.84;65.09
6528;BME280;3297;42.664;23.256;2022-07-05T02:23:06;50408.91;;;-139.84;65.12
6528;BME280;3297;42.664;23.256;2022-07-05T02:25:33;50443.91;;;-139.84;64.69
6528;BME280;3297;42.664;23.256;2022-07-05T02:27:58;50403.06;;;-139.84;64.70
6528;BME280;3297;42.664;23.256;2022-07-05T02:30:24;50397.25;;;-139.84;64.54
6528;BME280;3297;42.664;23.256;2022-07-05T02:32:50;50379.75;;;-139.84;63.85
6528;BME280;3297;42.664;23.256;2022-07-05T02:35:15;50406.97;;;-139.84;64.48
6528;BME280;3297;42.664;23.256;2022-07-05T02:37:41;50401.13;;;-139.84;64.88
6528;BME280;3297;42.664;23.256;2022-07-05T02:40:08;50406.97;;;-139.84;64.53
6528;BME280;3297;42.664;23.256;2022-07-05T02:42:34;50408.91;;;-139.84;64.96
6528;BME280;3297;42.664;23.256;2022-07-05T02:44:59;50416.69;;;-139.84;65.17
6528;BME280;3297;42.664;23.256;2022-07-05T02:47:25;50383.63;;;-139.84;65.15
6528;BME280;3297;42.664;23.256;2022-07-05T02:49:51;50420.56;;;-139.84;64.77
6528;BME280;3297;42.664;23.256;2022-07-05T02:52:18;50389.47;;;-139.84;64.84
6528;BME280;3297;42.664;23.256;2022-07-05T02:54:43;50397.25;;;-139.84;65.00
6528;BME280;3297;42.664;23.256;2022-07-05T02:57:09;50399.19;;;-139.84;64.86
6528;BME280;3297;42.664;23.256;2022-07-05T02:59:35;50393.34;;;-139.84;65.25
6528;BME280;3297;42.664;23.256;2022-07-05T03:02:01;50406.97;;;-139.84;65.35
6528;BME280;3297;42.664;23.256;2022-07-05T03:04:26;50428.34;;;-139.84;65.87
6528;BME280;3297;42.664;23.256;2022-07-05T03:06:52;50445.84;;;-139.84;66.23
6528;BME280;3297;42.664;23.256;2022-07-05T03:09:17;50387.53;;;-139.84;66.53
6528;BME280;3297;42.664;23.256;2022-07-05T03:11:43;50408.91;;;-139.84;66.29
6528;BME280;3297;42.664;23.256;2022-07-05T03:14:08;50393.34;;;-139.84;66.16
6528;BME280;3297;42.664;23.256;2022-07-05T03:16:34;50436.13;;;-139.84;66.35
6528;BME280;3297;42.664;23.256;2022-07-05T03:19:00;50426.41;;;-139.84;66.22
6528;BME280;3297;42.664;23.256;2022-07-05T03:21:25;50432.22;;;-139.84;66.55
6528;BME280;3297;42.664;23.256;2022-07-05T03:23:51;50420.56;;;-139.84;66.96
6528;BME280;3297;42.664;23.256;2022-07-05T03:26:16;50387.53;;;-139.84;67.18
6528;BME280;3297;42.664;23.256;2022-07-05T03:28:42;50432.22;;;-139.84;66.93
6528;BME280;3297;42.664;23.256;2022-07-05T03:31:08;50377.81;;;-139.84;67.12
6528;BME280;3297;42.664;23.256;2022-07-05T03:33:33;50436.13;;;-139.84;67.14
6528;BME280;3297;42.664;23.256;2022-07-05T03:35:59;50449.72;;;-139.84;66.63
6528;BME280;3297;42.664;23.256;2022-07-05T03:38:24;50436.13;;;-139.84;66.63
6528;BME280;3297;42.664;23.256;2022-07-05T03:40:50;50401.13;;;-139.84;66.26
6528;BME280;3297;42.664;23.256;2022-07-05T03:43:15;50405.03;;;-139.84;66.47
6528;BME280;3297;42.664;23.256;2022-07-05T03:45:41;50416.69;;;-139.84;66.25
6528;BME280;3297;42.664;23.256;2022-07-05T03:48:06;50438.06;;;-139.84;66.38
6528;BME280;3297;42.664;23.256;2022-07-05T03:50:32;50443.91;;;-139.84;66.20
6528;BME280;3297;42.664;23.256;2022-07-05T03:52:58;50424.47;;;-139.84;66.28
6528;BME280;3297;42.664;23.256;2022-07-05T03:55:23;50416.69;;;-139.84;66.72
6528;BME280;3297;42.664;23.256;2022-07-05T03:57:49;50447.78;;;-139.84;66.57
6528;BME280;3297;42.664;23.256;2022-07-05T04:00:15;50451.66;;;-139.84;66.25
6528;BME280;3297;42.664;23.256;2022-07-05T04:02:41;50455.56;;;-139.84;66.00
6528;BME280;3297;42.664;23.256;2022-07-05T04:05:06;50463.34;;;-139.84;65.87
6528;BME280;3297;42.664;23.256;2022-07-05T04:07:32;50432.22;;;-139.84;65.61
6528;BME280;3297;42.664;23.256;2022-07-05T04:09:58;50391.41;;;-139.84;65.54
6528;BME280;3297;42.664;23.256;2022-07-05T04:12:23;50424.47;;;-139.84;65.40
6528;BME280;3297;42.664;23.256;2022-07-05T04:14:49;50405.03;;;-139.84;65.34
6528;BME280;3297;42.664;23.256;2022-07-05T04:17:14;50447.78;;;-139.84;65.23
6528;BME280;3297;42.664;23.256;2022-07-05T04:19:40;50428.34;;;-139.84;64.88
6528;BME280;3297;42.664;23.256;2022-07-05T04:22:05;50461.38;;;-139.84;64.95
6528;BME280;3297;42.664;23.256;2022-07-05T04:24:31;50440.00;;;-139.84;65.32
6528;BME280;3297;42.664;23.256;2022-07-05T04:27:17;50430.28;;;-139.84;64.79
6528;BME280;3297;42.664;23.256;2022-07-05T04:29:43;50420.56;;;-139.84;64.16
6528;BME280;3297;42.664;23.256;2022-07-05T04:32:08;50455.56;;;-139.84;63.93
6528;BME280;3297;42.664;23.256;2022-07-05T04:34:34;50453.59;;;-139.84;62.93
6528;BME280;3297;42.664;23.256;2022-07-05T04:36:59;50449.72;;;-139.84;62.46
6528;BME280;3297;42.664;23.256;2022-07-05T04:39:25;50482.78;;;-139.84;61.56
6528;BME280;3297;42.664;23.256;2022-07-05T04:41:50;50478.88;;;-139.84;61.43
6528;BME280;3297;42.664;23.256;2022-07-05T04:44:16;50455.56;;;-139.84;61.63
6528;BME280;3297;42.664;23.256;2022-07-05T04:46:41;50482.78;;;-139.84;61.04
6528;BME280;3297;42.664;23.256;2022-07-05T04:49:07;50459.44;;;-139.84;60.54
6528;BME280;3297;42.664;23.256;2022-07-05T04:51:32;50447.78;;;-139.84;59.76
6528;BME280;3297;42.664;23.256;2022-07-05T04:53:58;50451.66;;;-139.84;57.11
6528;BME280;3297;42.664;23.256;2022-07-05T04:56:23;50467.22;;;-139.84;56.02
6528;BME280;3297;42.664;23.256;2022-07-05T04:58:49;50467.22;;;-139.84;56.43
6528;BME280;3297;42.664;23.256;2022-07-05T05:01:14;50478.88;;;-139.84;56.32
6528;BME280;3297;42.664;23.256;2022-07-05T05:03:40;50502.19;;;-139.84;55.17
6528;BME280;3297;42.664;23.256;2022-07-05T05:06:05;50459.44;;;-139.84;55.09
6528;BME280;3297;42.664;23.256;2022-07-05T05:08:31;50478.88;;;-139.84;54.54
6528;BME280;3297;42.664;23.256;2022-07-05T05:10:57;50451.66;;;-139.84;53.65
6528;BME280;3297;42.664;23.256;2022-07-05T05:13:22;50467.22;;;-139.84;53.57
6528;BME280;3297;42.664;23.256;2022-07-05T05:15:48;50440.00;;;-139.84;54.00
6528;BME280;3297;42.664;23.256;2022-07-05T05:18:13;50482.78;;;-139.84;53.32
6528;BME280;3297;42.664;23.256;2022-07-05T05:20:40;50438.06;;;-139.84;53.11
6528;BME280;3297;42.664;23.256;2022-07-05T05:23:06;50455.56;;;-139.84;52.82
6528;BME280;3297;42.664;23.256;2022-07-05T05:25:31;50455.56;;;-139.84;53.01
6528;BME280;3297;42.664;23.256;2022-07-05T05:27:57;50492.47;;;-139.84;52.29
6528;BME280;3297;42.664;23.256;2022-07-05T05:30:23;50490.53;;;-139.84;52.30
6528;BME280;3297;42.664;23.256;2022-07-05T05:32:48;50509.97;;;-139.84;51.27
6528;BME280;3297;42.664;23.256;2022-07-05T05:35:14;50488.59;;;-139.84;51.54
6528;BME280;3297;42.664;23.256;2022-07-05T05:37:51;50471.09;;;-139.84;52.43
6528;BME280;3297;42.664;23.256;2022-07-05T05:40:17;50494.44;;;-139.84;52.54
6528;BME280;3297;42.664;23.256;2022-07-05T05:42:43;50473.03;;;-139.84;52.42
6528;BME280;3297;42.664;23.256;2022-07-05T05:45:09;50486.66;;;-139.84;52.18
6528;BME280;3297;42.664;23.256;2022-07-05T05:50:10;50475.00;;;-139.84;56.70
6528;BME280;3297;42.664;23.256;2022-07-05T05:52:36;50509.97;;;-139.84;53.24
6528;BME280;3297;42.664;23.256;2022-07-05T05:55:01;50517.75;;;-139.84;50.11
6528;BME280;3297;42.664;23.256;2022-07-05T05:57:27;50515.81;;;-139.84;48.79
6528;BME280;3297;42.664;23.256;2022-07-05T05:59:52;50509.97;;;-139.84;47.40
6528;BME280;3297;42.664;23.256;2022-07-05T06:02:18;50537.19;;;-139.84;46.36
6528;BME280;3297;42.664;23.256;2022-07-05T06:04:43;50521.63;;;-139.84;44.85
6528;BME280;3297;42.664;23.256;2022-07-05T06:07:09;50527.47;;;-139.84;44.64
6528;BME280;3297;42.664;23.256;2022-07-05T06:09:34;50486.66;;;-139.84;43.71
6528;BME280;3297;42.664;23.256;2022-07-05T06:12:00;50529.41;;;-139.84;43.28
6528;BME280;3297;42.664;23.256;2022-07-05T06:14:25;50517.75;;;-139.84;42.33
6528;BME280;3297;42.664;23.256;2022-07-05T06:16:51;50552.75;;;-139.84;41.45
6528;BME280;3297;42.664;23.256;2022-07-05T06:19:16;50548.84;;;-139.84;41.33
6528;BME280;3297;42.664;23.256;2022-07-05T06:21:42;50513.88;;;-139.84;41.29
6528;BME280;3297;42.664;23.256;2022-07-05T06:24:08;50513.88;;;-139.84;40.71
6528;BME280;3297;42.664;23.256;2022-07-05T06:26:33;50533.31;;;-139.84;40.32
6528;BME280;3297;42.664;23.256;2022-07-05T06:28:59;50541.06;;;-139.84;39.67
6528;BME280;3297;42.664;23.256;2022-07-05T06:31:24;50570.22;;;-139.84;39.25
6528;BME280;3297;42.664;23.256;2022-07-05T06:33:50;50521.63;;;-139.84;39.11
6528;BME280;3297;42.664;23.256;2022-07-05T06:36:15;50523.59;;;-139.84;38.15
6528;BME280;3297;42.664;23.256;2022-07-05T06:38:41;50533.31;;;-139.84;37.53
6528;BME280;3297;42.664;23.256;2022-07-05T06:41:06;50541.06;;;-139.84;36.78
6528;BME280;3297;42.664;23.256;2022-07-05T06:43:32;50544.97;;;-139.84;36.36
6528;BME280;3297;42.664;23.256;2022-07-05T06:45:57;50529.41;;;-139.84;37.36
6528;BME280;3297;42.664;23.256;2022-07-05T06:48:24;50548.84;;;-139.84;37.42
6528;BME280;3297;42.664;23.256;2022-07-05T06:50:50;50504.16;;;-139.84;36.37
6528;BME280;3297;42.664;23.256;2022-07-05T06:53:15;50537.19;;;-139.84;35.76
6528;BME280;3297;42.664;23.256;2022-07-05T06:55:41;50548.84;;;-139.84;35.41
6528;BME280;3297;42.664;23.256;2022-07-05T06:58:12;50548.84;;;-139.84;34.92
6528;BME280;3297;42.664;23.256;2022-07-05T07:00:39;50539.13;;;-139.84;34.40
6528;BME280;3297;42.664;23.256;2022-07-05T07:03:05;50548.84;;;-139.84;34.76
6528;BME280;3297;42.664;23.256;2022-07-05T07:05:30;50541.06;;;-139.84;35.12
6528;BME280;3297;42.664;23.256;2022-07-05T07:07:56;50529.41;;;-139.84;35.44
6528;BME280;3297;42.664;23.256;2022-07-05T07:10:40;50527.47;;;-139.84;35.19
6528;BME280;3297;42.664;23.256;2022-07-05T07:13:06;50548.84;;;-139.84;34.93
6528;BME280;3297;42.664;23.256;2022-07-05T07:15:31;50517.75;;;-139.84;34.76
6528;BME280;3297;42.664;23.256;2022-07-05T07:17:59;50515.81;;;-139.84;34.79
6528;BME280;3297;42.664;23.256;2022-07-05T07:20:25;50531.34;;;-139.84;34.08
6528;BME280;3297;42.664;23.256;2022-07-05T07:22:51;50537.19;;;-139.84;34.37
6528;BME280;3297;42.664;23.256;2022-07-05T07:25:17;50560.50;;;-139.84;33.90
6528;BME280;3297;42.664;23.256;2022-07-05T07:27:47;50587.72;;;-139.84;33.79
6528;BME280;3297;42.664;23.256;2022-07-05T07:30:15;50558.56;;;-139.84;33.62
6528;BME280;3297;42.664;23.256;2022-07-05T07:32:41;50550.78;;;-139.84;33.87
6528;BME280;3297;42.664;23.256;2022-07-05T07:35:08;50548.84;;;-139.84;33.65
6528;BME280;3297;42.664;23.256;2022-07-05T07:37:36;50543.03;;;-139.84;33.22
6528;BME280;3297;42.664;23.256;2022-07-05T07:40:05;50525.53;;;-139.84;33.14
6528;BME280;3297;42.664;23.256;2022-07-05T07:42:31;50529.41;;;-139.84;32.72
6528;BME280;3297;42.664;23.256;2022-07-05T07:44:57;50556.63;;;-139.84;33.32
6528;BME280;3297;42.664;23.256;2022-07-05T07:47:23;50513.88;;;-139.84;33.38
6528;BME280;3297;42.664;23.256;2022-07-05T07:49:49;50513.88;;;-139.84;32.45
6528;BME280;3297;42.664;23.256;2022-07-05T07:52:15;50564.41;;;-139.84;32.43
6528;BME280;3297;42.664;23.256;2022-07-05T07:54:41;50521.63;;;-139.84;32.45
6528;BME280;3297;42.664;23.256;2022-07-05T07:57:07;50519.69;;;-139.84;33.01
6528;BME280;3297;42.664;23.256;2022-07-05T07:59:33;50500.25;;;-139.84;33.32
6528;BME280;3297;42.664;23.256;2022-07-05T08:01:58;50566.34;;;-139.84;32.20
6528;BME280;3297;42.664;23.256;2022-07-05T08:04:24;50548.84;;;-139.84;32.28
6528;BME280;3297;42.664;23.256;2022-07-05T08:06:50;50515.81;;;-139.84;32.03
6528;BME280;3297;42.664;23.256;2022-07-05T08:09:15;50541.06;;;-139.84;31.65
6528;BME280;3297;42.664;23.256;2022-07-05T08:11:41;50521.63;;;-139.84;31.64
6528;BME280;3297;42.664;23.256;2022-07-05T08:14:06;50509.97;;;-139.84;32.17
6528;BME280;3297;42.664;23.256;2022-07-05T08:16:32;50544.97;;;-139.84;31.89
6528;BME280;3297;42.664;23.256;2022-07-05T08:18:59;50541.06;;;-139.84;31.97
6528;BME280;3297;42.664;23.256;2022-07-05T08:21:43;50535.25;;;-139.84;31.18
6528;BME280;3297;42.664;23.256;2022-07-05T08:24:11;50548.84;;;-139.84;31.07
6528;BME280;3297;42.664;23.256;2022-07-05T08:26:37;50572.19;;;-139.84;31.08
6528;BME280;3297;42.664;23.256;2022-07-05T08:29:05;50552.75;;;-139.84;30.57
6528;BME280;3297;42.664;23.256;2022-07-05T08:31:43;50509.97;;;-139.84;30.53
6528;BME280;3297;42.664;23.256;2022-07-05T08:34:09;50509.97;;;-139.84;30.23
6528;BME280;3297;42.664;23.256;2022-07-05T08:36:36;50548.84;;;-139.84;30.40
6528;BME280;3297;42.664;23.256;2022-07-05T08:39:03;50533.31;;;-139.84;30.91
6528;BME280;3297;42.664;23.256;2022-07-05T08:41:29;50533.31;;;-139.84;30.68
6528;BME280;3297;42.664;23.256;2022-07-05T08:43:57;50529.41;;;-139.84;30.43
6528;BME280;3297;42.664;23.256;2022-07-05T08:46:25;50519.69;;;-139.84;30.70
6528;BME280;3297;42.664;23.256;2022-07-05T08:48:51;50492.47;;;-139.84;30.48
6528;BME280;3297;42.664;23.256;2022-07-05T08:51:21;50488.59;;;-139.84;30.36
6528;BME280;3297;42.664;23.256;2022-07-05T08:53:48;50494.44;;;-139.84;30.77
6528;BME280;3297;42.664;23.256;2022-07-05T08:56:15;50537.19;;;-139.84;29.79
6528;BME280;3297;42.664;23.256;2022-07-05T08:58:41;50622.72;;;-139.84;30.06
6528;BME280;3297;42.664;23.256;2022-07-05T09:01:09;50506.09;;;-139.84;30.01
6528;BME280;3297;42.664;23.256;2022-07-05T09:03:39;50519.69;;;-139.84;30.28
6528;BME280;3297;42.664;23.256;2022-07-05T09:06:09;50521.63;;;-139.84;30.08
6528;BME280;3297;42.664;23.256;2022-07-05T09:08:37;50509.97;;;-139.84;29.54
6528;BME280;3297;42.664;23.256;2022-07-05T09:11:10;50490.53;;;-139.84;28.96
6528;BME280;3297;42.664;23.256;2022-07-05T09:13:38;50509.97;;;-139.84;29.34
6528;BME280;3297;42.664;23.256;2022-07-05T09:16:04;50517.75;;;-139.84;28.90
6528;BME280;3297;42.664;23.256;2022-07-05T09:18:46;50500.25;;;-139.84;28.35
6528;BME280;3297;42.664;23.256;2022-07-05T09:21:18;50502.19;;;-139.84;29.23
6528;BME280;3297;42.664;23.256;2022-07-05T09:23:52;50478.88;;;-139.84;29.37
6528;BME280;3297;42.664;23.256;2022-07-05T09:26:19;50529.41;;;-139.84;29.43
6528;BME280;3297;42.664;23.256;2022-07-05T09:28:55;50537.19;;;-139.84;29.11
6528;BME280;3297;42.664;23.256;2022-07-05T09:31:29;50509.97;;;-139.84;28.83
6528;BME280;3297;42.664;23.256;2022-07-05T09:34:03;50506.09;;;-139.84;28.21
6528;BME280;3297;42.664;23.256;2022-07-05T09:36:49;50480.81;;;-139.84;28.11
6528;BME280;3297;42.664;23.256;2022-07-05T09:39:15;50482.78;;;-139.84;28.11
6528;BME280;3297;42.664;23.256;2022-07-05T09:41:41;50486.66;;;-139.84;28.32
6528;BME280;3297;42.664;23.256;2022-07-05T09:44:07;50486.66;;;-139.84;29.45
6528;BME280;3297;42.664;23.256;2022-07-05T09:46:33;50455.56;;;-139.84;29.29
6528;BME280;3297;42.664;23.256;2022-07-05T09:48:59;50502.19;;;-139.84;28.16
6528;BME280;3297;42.664;23.256;2022-07-05T09:51:25;50506.09;;;-139.84;28.05
6528;BME280;3297;42.664;23.256;2022-07-05T09:53:53;50519.69;;;-139.84;28.33
6528;BME280;3297;42.664;23.256;2022-07-05T09:56:20;50525.53;;;-139.84;27.26
6528;BME280;3297;42.664;23.256;2022-07-05T09:58:46;50467.22;;;-139.84;28.20
6528;BME280;3297;42.664;23.256;2022-07-05T10:01:31;50471.09;;;-139.84;27.89
6528;BME280;3297;42.664;23.256;2022-07-05T10:03:59;50463.34;;;-139.84;27.45
6528;BME280;3297;42.664;23.256;2022-07-05T10:06:28;50486.66;;;-139.84;26.84
6528;BME280;3297;42.664;23.256;2022-07-05T10:08:53;50490.53;;;-139.84;27.50
6528;BME280;3297;42.664;23.256;2022-07-05T10:11:23;50471.09;;;-139.84;28.61
6528;BME280;3297;42.664;23.256;2022-07-05T10:13:53;50502.19;;;-139.84;28.18
6528;BME280;3297;42.664;23.256;2022-07-05T10:16:20;50482.78;;;-139.84;28.03
6528;BME280;3297;42.664;23.256;2022-07-05T10:18:51;50482.78;;;-139.84;27.95
6528;BME280;3297;42.664;23.256;2022-07-05T10:21:18;50513.88;;;-139.84;27.23
6528;BME280;3297;42.664;23.256;2022-07-05T10:23:46;50486.66;;;-139.84;26.85
6528;BME280;3297;42.664;23.256;2022-07-05T10:26:14;50490.53;;;-139.84;27.23
6528;BME280;3297;42.664;23.256;2022-07-05T10:28:41;50478.88;;;-139.84;26.85
6528;BME280;3297;42.664;23.256;2022-07-05T10:31:11;50436.13;;;-139.84;28.19
6528;BME280;3297;42.664;23.256;2022-07-05T10:33:38;50548.84;;;-139.84;27.19
6528;BME280;3297;42.664;23.256;2022-07-05T10:36:04;50465.28;;;-139.84;28.01
6528;BME280;3297;42.664;23.256;2022-07-05T10:38:35;50451.66;;;-139.84;27.95
6528;BME280;3297;42.664;23.256;2022-07-05T10:41:03;50482.78;;;-139.84;27.15
6528;BME280;3297;42.664;23.256;2022-07-05T10:43:30;50467.22;;;-139.84;27.43
6528;BME280;3297;42.664;23.256;2022-07-05T10:45:56;50461.38;;;-139.84;27.95
6528;BME280;3297;42.664;23.256;2022-07-05T10:48:23;50459.44;;;-139.84;27.75
6528;BME280;3297;42.664;23.256;2022-07-05T10:53:24;50478.88;;;-139.84;28.55
6528;BME280;3297;42.664;23.256;2022-07-05T11:03:40;50471.09;;;-139.84;28.58
6528;BME280;3297;42.664;23.256;2022-07-05T11:06:07;50482.78;;;-139.84;28.49
6528;BME280;3297;42.664;23.256;2022-07-05T11:11:24;50471.09;;;-139.84;28.74
6528;BME280;3297;42.664;23.256;2022-07-05T11:13:50;50451.66;;;-139.84;27.83
6528;BME280;3297;42.664;23.256;2022-07-05T11:16:24;50498.31;;;-139.84;28.38
6528;BME280;3297;42.664;23.256;2022-07-05T11:19:13;50490.53;;;-139.84;28.89
6528;BME280;3297;42.664;23.256;2022-07-05T11:21:59;50428.34;;;-139.84;28.58
6528;BME280;3297;42.664;23.256;2022-07-05T11:24:27;50486.66;;;-139.84;28.72
6528;BME280;3297;42.664;23.256;2022-07-05T11:26:57;50445.84;;;-139.84;28.74
6528;BME280;3297;42.664;23.256;2022-07-05T11:29:45;50459.44;;;-139.84;28.15
6528;BME280;3297;42.664;23.256;2022-07-05T11:32:14;50484.72;;;-139.84;28.55
6528;BME280;3297;42.664;23.256;2022-07-05T11:34:41;50453.59;;;-139.84;27.74
6528;BME280;3297;42.664;23.256;2022-07-05T11:42:32;50438.06;;;-139.84;27.97
6528;BME280;3297;42.664;23.256;2022-07-05T11:45:05;50443.91;;;-139.84;28.16
6528;BME280;3297;42.664;23.256;2022-07-05T11:47:31;50447.78;;;-139.84;28.94
6528;BME280;3297;42.664;23.256;2022-07-05T11:49:57;50476.94;;;-139.84;28.69
6528;BME280;3297;42.664;23.256;2022-07-05T11:52:31;50443.91;;;-139.84;29.17
6528;BME280;3297;42.664;23.256;2022-07-05T11:54:58;50447.78;;;-139.84;27.92
6528;BME280;3297;42.664;23.256;2022-07-05T11:57:24;50432.22;;;-139.84;28.33
6528;BME280;3297;42.664;23.256;2022-07-05T11:59:50;50463.34;;;-139.84;28.79
6528;BME280;3297;42.664;23.256;2022-07-05T12:02:16;50463.34;;;-139.84;28.93
6528;BME280;3297;42.664;23.256;2022-07-05T12:04:53;50455.56;;;-139.84;28.41
6528;BME280;3297;42.664;23.256;2022-07-05T12:07:48;50447.78;;;-139.84;28.06
6528;BME280;3297;42.664;23.256;2022-07-05T12:10:14;50459.44;;;-139.84;28.92
6528;BME280;3297;42.664;23.256;2022-07-05T12:13:08;50447.78;;;-139.84;28.65
6528;BME280;3297;42.664;23.256;2022-07-05T12:15:35;50473.03;;;-139.84;28.68
6528;BME280;3297;42.664;23.256;2022-07-05T12:18:03;50443.91;;;-139.84;28.40
6528;BME280;3297;42.664;23.256;2022-07-05T12:20:30;50451.66;;;-139.84;28.67
6528;BME280;3297;42.664;23.256;2022-07-05T12:22:56;50438.06;;;-139.84;28.82
6528;BME280;3297;42.664;23.256;2022-07-05T12:25:24;50449.72;;;-139.84;28.93
6528;BME280;3297;42.664;23.256;2022-07-05T12:27:51;50463.34;;;-139.84;28.85
6528;BME280;3297;42.664;23.256;2022-07-05T12:30:18;50420.56;;;-139.84;28.66
6528;BME280;3297;42.664;23.256;2022-07-05T12:32:57;50447.78;;;-139.84;28.84
6528;BME280;3297;42.664;23.256;2022-07-05T12:35:41;50455.56;;;-139.84;29.49
6528;BME280;3297;42.664;23.256;2022-07-05T12:40:40;50459.44;;;-139.84;28.91
6528;BME280;3297;42.664;23.256;2022-07-05T12:43:18;50461.38;;;-139.84;28.79
6528;BME280;3297;42.664;23.256;2022-07-05T12:46:02;50445.84;;;-139.84;29.12
6528;BME280;3297;42.664;23.256;2022-07-05T12:48:32;50428.34;;;-139.84;28.99
6528;BME280;3297;42.664;23.256;2022-07-05T12:50:58;50414.75;;;-139.84;28.82
6528;BME280;3297;42.664;23.256;2022-07-05T12:53:24;50432.22;;;-139.84;29.23
6528;BME280;3297;42.664;23.256;2022-07-05T12:56:10;50467.22;;;-139.84;29.50
6528;BME280;3297;42.664;23.256;2022-07-05T12:58:59;50451.66;;;-139.84;29.52
6528;BME280;3297;42.664;23.256;2022-07-05T13:01:28;50440.00;;;-139.84;29.44
6528;BME280;3297;42.664;23.256;2022-07-05T13:04:02;50440.00;;;-139.84;29.43
6528;BME280;3297;42.664;23.256;2022-07-05T13:06:48;50408.91;;;-139.84;29.66
6528;BME280;3297;42.664;23.256;2022-07-05T13:09:35;50436.13;;;-139.84;30.08
6528;BME280;3297;42.664;23.256;2022-07-05T13:14:41;50424.47;;;-139.84;29.99
6528;BME280;3297;42.664;23.256;2022-07-05T13:17:08;50393.34;;;-139.84;30.54
6528;BME280;3297;42.664;23.256;2022-07-05T13:19:34;50432.22;;;-139.84;30.80